Weather at Sentani International Airport

Public forecast

Using degrees Celsius for public forecast. Weather courtesy of forecast.io.

Current aviation weather report (METAR) for Sentani International Airport

Retrieved 2021/03/02 12:30 UTC (36 minutes ago):

WAJJ 021230Z 28004KT 8000 -TSRA FEW011CB FEW012 26/23 Q1009 NOSIG

Aviation forecast (TAF) for Sentani International Airport

Forecast is more than 12 hours old.

Retrieved 2013/03/11 12:00 UTC (8 years ago):

TAF WAJJ 111100Z 1112/1212 29006KT 5000 HZ SCT016 TEMPO 1113/1121 4000 RA FEW014CB BECMG 1200/1202 28012KT 9999 TEMPO 1207/1212 6000 RA FEW014CB